createdAt,value
2023-05-10T00:02:07.582Z,68.37
2023-05-10T00:07:12.179Z,68.43
2023-05-10T00:12:15.114Z,68.44
2023-05-10T00:17:17.829Z,68.63
2023-05-10T00:22:21.912Z,68.89
2023-05-10T00:27:24.589Z,68.75
2023-05-10T00:32:27.377Z,69.02
2023-05-10T00:37:31.367Z,69.38
2023-05-10T00:42:34.309Z,69.46
2023-05-10T00:47:37.345Z,69.16
2023-05-10T00:52:41.387Z,69.51
2023-05-10T00:57:44.245Z,69.71
2023-05-10T01:02:48.039Z,69.64
2023-05-10T01:07:52.215Z,70.21
2023-05-10T01:12:54.919Z,70.29
2023-05-10T01:17:57.964Z,70.06
2023-05-10T01:23:33.361Z,70.22
2023-05-10T01:29:00.254Z,71.16
2023-05-10T01:34:09.304Z,70.44
2023-05-10T01:39:17.984Z,70.30
2023-05-10T01:44:26.776Z,71.32
2023-05-10T01:49:33.075Z,70.05
2023-05-10T01:54:36.507Z,70.72
2023-05-10T01:59:41.640Z,70.51
2023-05-10T02:04:47.162Z,69.27
2023-05-10T02:09:50.011Z,69.38
2023-05-10T02:14:53.626Z,69.01
2023-05-10T02:19:58.507Z,69.43
2023-05-10T02:25:01.829Z,69.37
2023-05-10T02:30:05.297Z,69.76
2023-05-10T02:35:10.707Z,70.40
2023-05-10T02:40:14.066Z,69.50
2023-05-10T02:45:19.769Z,69.70
2023-05-10T02:50:24.287Z,69.16
2023-05-10T02:55:29.044Z,69.55
2023-05-10T03:00:31.855Z,69.59
2023-05-10T03:05:35.848Z,69.64
2023-05-10T03:10:43.797Z,69.86
2023-05-10T03:15:51.008Z,69.59
2023-05-10T03:20:59.575Z,70.25
2023-05-10T03:26:03.167Z,70.09
2023-05-10T03:31:07.913Z,70.10
2023-05-10T03:36:12.325Z,70.00
2023-05-10T03:41:15.037Z,70.61
2023-05-10T03:46:17.932Z,70.46
2023-05-10T03:51:23.168Z,70.75
2023-05-10T03:56:25.889Z,70.89
2023-05-10T04:01:28.560Z,71.08
2023-05-10T04:06:32.840Z,71.14
2023-05-10T04:11:35.778Z,71.79
2023-05-10T04:16:38.477Z,71.70
2023-05-10T04:21:42.431Z,71.56
2023-05-10T04:26:45.078Z,71.37
2023-05-10T04:31:47.714Z,71.40
2023-05-10T04:36:51.703Z,71.66
2023-05-10T04:41:54.415Z,71.91
2023-05-10T04:46:57.038Z,71.86
2023-05-10T04:52:01.064Z,72.10
2023-05-10T04:57:03.648Z,72.00
2023-05-10T05:02:07.306Z,72.44
2023-05-10T05:07:11.335Z,72.33
2023-05-10T05:12:15.123Z,72.02
2023-05-10T05:17:17.904Z,72.48
2023-05-10T05:22:28.146Z,72.41
2023-05-10T05:27:31.276Z,72.59
2023-05-10T05:32:33.955Z,72.56
2023-05-10T05:37:38.359Z,72.76
2023-05-10T05:42:40.965Z,72.81
2023-05-10T05:47:43.746Z,72.70
2023-05-10T05:52:47.724Z,72.14
2023-05-10T05:57:50.305Z,72.24
2023-05-10T06:02:53.202Z,72.41
2023-05-10T06:07:57.379Z,72.32
2023-05-10T06:13:00.002Z,71.36
2023-05-10T06:18:02.748Z,71.66
2023-05-10T06:23:34.796Z,71.47
2023-05-10T06:28:40.128Z,71.49
2023-05-10T06:33:45.034Z,71.67
2023-05-10T06:38:49.474Z,71.50
2023-05-10T06:43:52.168Z,71.52
2023-05-10T06:48:54.804Z,72.18
2023-05-10T06:54:03.213Z,71.71
2023-05-10T06:59:05.941Z,72.02
2023-05-10T07:04:08.676Z,72.25
2023-05-10T07:09:12.583Z,71.95
2023-05-10T07:14:15.208Z,72.24
2023-05-10T07:19:17.772Z,71.92
2023-05-10T07:24:24.309Z,72.07
2023-05-10T07:29:27.138Z,72.25
2023-05-10T07:34:31.034Z,71.95
2023-05-10T07:39:35.052Z,72.38
2023-05-10T07:44:37.677Z,71.95
2023-05-10T07:49:40.290Z,72.31
2023-05-10T07:54:45.491Z,72.28
2023-05-10T07:59:48.415Z,73.09
2023-05-10T08:04:50.986Z,72.94
2023-05-10T08:09:54.938Z,72.61
2023-05-10T08:14:57.951Z,72.96
2023-05-10T08:20:00.558Z,73.11
2023-05-10T08:25:04.714Z,73.38
2023-05-10T08:30:08.812Z,72.73
2023-05-10T08:35:11.432Z,72.59
2023-05-10T08:40:16.437Z,72.59
2023-05-10T08:45:20.182Z,73.23
2023-05-10T08:50:23.790Z,73.40
2023-05-10T08:55:27.826Z,73.02
2023-05-10T09:00:30.967Z,72.54
2023-05-10T09:05:33.737Z,72.04
2023-05-10T09:10:37.767Z,73.02
2023-05-10T09:15:40.388Z,73.40
2023-05-10T09:20:43.129Z,72.55
2023-05-10T09:25:47.198Z,72.33
2023-05-10T09:30:56.353Z,72.72
2023-05-10T09:36:08.736Z,73.17
2023-05-10T09:41:19.335Z,72.07
2023-05-10T09:46:22.015Z,71.40
2023-05-10T09:51:26.123Z,72.09
2023-05-10T09:56:36.869Z,71.94
2023-05-10T10:01:39.860Z,71.74
2023-05-10T10:06:43.063Z,71.18
2023-05-10T10:11:47.003Z,71.32
2023-05-10T10:17:05.566Z,71.84
2023-05-10T10:22:11.712Z,71.98
2023-05-10T10:27:23.760Z,71.81
2023-05-10T10:32:32.117Z,71.83
2023-05-10T10:37:45.032Z,71.57
2023-05-10T10:42:50.758Z,71.53
2023-05-10T10:48:10.854Z,69.73
2023-05-10T10:53:13.903Z,71.07
2023-05-10T10:58:33.581Z,69.21
2023-05-10T11:03:36.286Z,70.22
2023-05-10T11:08:45.394Z,68.64
2023-05-10T11:13:51.315Z,68.61
2023-05-10T11:18:56.120Z,68.55
2023-05-10T11:24:00.150Z,66.66
2023-05-10T11:29:05.849Z,67.22
2023-05-10T11:34:08.541Z,67.77
2023-05-10T11:39:12.366Z,67.85
2023-05-10T11:44:16.414Z,68.43
2023-05-10T11:49:19.956Z,67.49
2023-05-10T11:54:22.612Z,67.56
2023-05-10T11:59:27.213Z,66.72
2023-05-10T12:04:30.341Z,66.25
2023-05-10T12:09:43.427Z,66.24
2023-05-10T12:14:50.961Z,66.56
2023-05-10T12:19:53.650Z,67.04
2023-05-10T12:24:56.340Z,66.58
2023-05-10T12:30:02.346Z,67.17
2023-05-10T12:35:05.978Z,67.16
2023-05-10T12:40:10.460Z,66.92
2023-05-10T12:45:14.625Z,66.19
2023-05-10T12:50:17.505Z,66.02
2023-05-10T12:55:20.207Z,67.64
2023-05-10T13:00:24.261Z,67.39
2023-05-10T13:05:26.950Z,67.59
2023-05-10T13:10:31.126Z,67.77
2023-05-10T13:15:35.193Z,67.36
2023-05-10T13:20:37.893Z,66.27
2023-05-10T13:25:40.581Z,65.83
2023-05-10T13:30:44.820Z,65.00
2023-05-10T13:35:47.470Z,65.57
2023-05-10T13:40:53.339Z,65.61
2023-05-10T13:45:57.720Z,66.02
2023-05-10T13:51:00.400Z,65.39
2023-05-10T13:56:03.815Z,66.40
2023-05-10T14:01:07.831Z,65.08
2023-05-10T14:06:10.457Z,66.06
2023-05-10T14:11:13.797Z,65.07
2023-05-10T14:16:17.799Z,63.98
2023-05-10T14:21:20.467Z,64.61
2023-05-10T14:26:23.124Z,63.99
2023-05-10T14:31:27.318Z,63.74
2023-05-10T14:36:30.056Z,62.82
2023-05-10T14:41:32.719Z,64.51
2023-05-10T14:46:36.790Z,62.80
2023-05-10T14:51:39.463Z,65.10
2023-05-10T14:56:42.424Z,62.78
2023-05-10T15:01:46.595Z,63.36
2023-05-10T15:06:49.655Z,62.81
2023-05-10T15:11:52.484Z,62.71
2023-05-10T15:16:56.467Z,62.74
2023-05-10T15:21:59.101Z,63.74
2023-05-10T15:27:02.014Z,63.07
2023-05-10T15:32:08.000Z,63.26
2023-05-10T15:37:10.779Z,63.59
2023-05-10T15:42:13.899Z,64.55
2023-05-10T15:47:18.045Z,62.02
2023-05-10T15:52:21.017Z,61.90
2023-05-10T15:57:23.607Z,61.05
2023-05-10T16:02:27.828Z,62.12
2023-05-10T16:07:30.527Z,61.04
2023-05-10T16:12:33.156Z,61.32
2023-05-10T16:17:37.482Z,61.71
2023-05-10T16:22:40.531Z,61.85
2023-05-10T16:28:17.826Z,63.42
2023-05-10T17:13:10.821Z,65.81
2023-05-10T17:18:19.258Z,66.17
2023-05-10T17:23:27.918Z,66.08
2023-05-10T18:01:15.314Z,66.59
2023-05-10T18:06:18.000Z,66.65
2023-05-10T18:11:21.781Z,67.10
2023-05-10T18:16:25.902Z,66.04
2023-05-10T18:21:28.903Z,65.66
2023-05-10T18:26:31.548Z,65.55
2023-05-10T18:31:35.560Z,65.43
2023-05-10T18:36:38.295Z,65.78
2023-05-10T18:41:40.950Z,66.16
2023-05-10T18:46:45.232Z,66.12
2023-05-10T18:51:51.280Z,66.43
2023-05-10T18:56:58.566Z,66.33
2023-05-10T19:02:02.629Z,66.79
2023-05-10T19:07:05.569Z,66.60
2023-05-10T19:12:08.813Z,66.45
2023-05-10T19:17:13.257Z,66.38
2023-05-10T19:22:15.953Z,66.39
2023-05-10T19:27:18.711Z,66.32
2023-05-10T19:32:24.092Z,67.13
2023-05-10T19:37:27.123Z,67.25
2023-05-10T19:42:29.782Z,67.74
2023-05-10T19:47:35.181Z,67.09
2023-05-10T19:52:38.118Z,67.39
2023-05-10T19:57:40.873Z,67.05
2023-05-10T20:02:44.918Z,67.72
2023-05-10T20:07:47.603Z,67.55
2023-05-10T20:12:52.396Z,67.72
2023-05-10T20:17:56.822Z,67.73
2023-05-10T20:22:59.443Z,68.19
2023-05-10T20:28:02.382Z,67.39
2023-05-10T20:33:06.729Z,68.16
2023-05-10T20:38:09.418Z,68.29
2023-05-10T20:43:12.138Z,67.96
2023-05-10T20:48:16.654Z,67.96
2023-05-10T20:53:19.360Z,67.86
2023-05-10T20:58:26.279Z,68.22
2023-05-10T21:03:31.006Z,68.97
2023-05-10T21:08:33.637Z,68.66
2023-05-10T21:13:36.272Z,68.78
2023-05-10T21:18:40.272Z,69.51
2023-05-10T21:23:42.928Z,69.68
2023-05-10T21:28:45.788Z,69.68
2023-05-10T21:33:49.841Z,70.09
2023-05-10T21:38:52.537Z,69.49
2023-05-10T21:43:56.220Z,69.64
2023-05-10T21:49:00.232Z,70.13
2023-05-10T21:54:02.872Z,69.75
2023-05-10T21:59:05.542Z,69.55
2023-05-10T22:04:09.541Z,69.36
2023-05-10T22:09:12.186Z,69.52
2023-05-10T22:14:14.880Z,69.41
2023-05-10T22:19:18.890Z,69.91
2023-05-10T22:24:21.534Z,70.12
2023-05-10T22:29:24.376Z,70.03
2023-05-10T22:34:28.593Z,69.83
2023-05-10T22:39:31.237Z,69.92
2023-05-10T22:44:33.922Z,70.12
2023-05-10T22:49:38.614Z,70.00
2023-05-10T22:54:41.369Z,70.44
2023-05-10T23:00:33.798Z,70.51
2023-05-10T23:05:37.907Z,70.54
2023-05-10T23:10:40.545Z,70.71
2023-05-10T23:15:43.540Z,70.59
2023-05-10T23:20:47.561Z,70.41
2023-05-10T23:25:50.295Z,71.06
2023-05-10T23:30:55.893Z,70.25
2023-05-10T23:35:59.813Z,70.64
2023-05-10T23:41:02.405Z,70.94
2023-05-10T23:46:06.455Z,70.90
2023-05-10T23:51:10.505Z,70.93
2023-05-10T23:56:13.175Z,70.83
